sensor_id;sensor_type;location;lat;lon;timestamp;temperature;humidity
326;DHT22;150;52.352;14.058;2023-06-22T00:01:00;22.70;38.00
326;DHT22;150;52.352;14.058;2023-06-22T00:03:30;22.70;38.30
326;DHT22;150;52.352;14.058;2023-06-22T00:05:57;22.60;38.60
326;DHT22;150;52.352;14.058;2023-06-22T00:08:25;22.60;38.30
326;DHT22;150;52.352;14.058;2023-06-22T00:10:52;22.50;38.30
326;DHT22;150;52.352;14.058;2023-06-22T00:13:21;22.50;38.70
326;DHT22;150;52.352;14.058;2023-06-22T00:15:48;22.50;39.30
326;DHT22;150;52.352;14.058;2023-06-22T00:18:15;22.40;39.30
326;DHT22;150;52.352;14.058;2023-06-22T00:20:42;22.40;39.50
326;DHT22;150;52.352;14.058;2023-06-22T00:23:11;22.40;39.40
326;DHT22;150;52.352;14.058;2023-06-22T00:25:42;22.40;39.60
326;DHT22;150;52.352;14.058;2023-06-22T00:28:09;22.40;39.50
326;DHT22;150;52.352;14.058;2023-06-22T00:30:36;22.30;39.40
326;DHT22;150;52.352;14.058;2023-06-22T00:33:03;22.30;39.50
326;DHT22;150;52.352;14.058;2023-06-22T00:35:33;22.30;39.40
326;DHT22;150;52.352;14.058;2023-06-22T00:38:01;22.30;39.40
326;DHT22;150;52.352;14.058;2023-06-22T00:40:29;22.30;39.60
326;DHT22;150;52.352;14.058;2023-06-22T00:42:58;22.30;40.00
326;DHT22;150;52.352;14.058;2023-06-22T00:45:25;22.20;39.80
326;DHT22;150;52.352;14.058;2023-06-22T00:47:52;22.20;39.70
326;DHT22;150;52.352;14.058;2023-06-22T00:50:22;22.20;39.90
326;DHT22;150;52.352;14.058;2023-06-22T00:52:52;22.20;40.00
326;DHT22;150;52.352;14.058;2023-06-22T00:55:19;22.10;40.10
326;DHT22;150;52.352;14.058;2023-06-22T00:57:49;22.10;39.90
326;DHT22;150;52.352;14.058;2023-06-22T01:00:18;22.10;40.10
326;DHT22;150;52.352;14.058;2023-06-22T01:02:46;22.00;40.40
326;DHT22;150;52.352;14.058;2023-06-22T01:05:18;22.00;40.50
326;DHT22;150;52.352;14.058;2023-06-22T01:07:54;22.00;40.10
326;DHT22;150;52.352;14.058;2023-06-22T01:10:27;21.90;40.30
326;DHT22;150;52.352;14.058;2023-06-22T01:13:13;21.90;40.60
326;DHT22;150;52.352;14.058;2023-06-22T01:15:47;21.90;40.50
326;DHT22;150;52.352;14.058;2023-06-22T01:18:17;21.90;40.00
326;DHT22;150;52.352;14.058;2023-06-22T01:20:45;21.90;40.90
326;DHT22;150;52.352;14.058;2023-06-22T01:23:26;21.90;41.10
326;DHT22;150;52.352;14.058;2023-06-22T01:25:59;21.90;40.80
326;DHT22;150;52.352;14.058;2023-06-22T01:28:47;21.90;41.10
326;DHT22;150;52.352;14.058;2023-06-22T01:31:16;21.90;41.00
326;DHT22;150;52.352;14.058;2023-06-22T01:33:51;21.90;40.90
326;DHT22;150;52.352;14.058;2023-06-22T01:36:20;21.90;40.70
326;DHT22;150;52.352;14.058;2023-06-22T01:38:48;21.90;41.30
326;DHT22;150;52.352;14.058;2023-06-22T01:41:16;21.90;41.00
326;DHT22;150;52.352;14.058;2023-06-22T01:43:44;21.90;41.40
326;DHT22;150;52.352;14.058;2023-06-22T01:46:13;21.90;41.00
326;DHT22;150;52.352;14.058;2023-06-22T01:48:40;21.90;41.00
326;DHT22;150;52.352;14.058;2023-06-22T01:51:07;21.90;41.10
326;DHT22;150;52.352;14.058;2023-06-22T01:53:34;21.90;41.30
326;DHT22;150;52.352;14.058;2023-06-22T01:56:01;22.00;41.20
326;DHT22;150;52.352;14.058;2023-06-22T01:58:29;22.00;41.30
326;DHT22;150;52.352;14.058;2023-06-22T02:01:00;22.10;41.50
326;DHT22;150;52.352;14.058;2023-06-22T02:03:34;22.10;41.50
326;DHT22;150;52.352;14.058;2023-06-22T02:06:06;22.20;41.80
326;DHT22;150;52.352;14.058;2023-06-22T02:08:38;22.20;42.00
326;DHT22;150;52.352;14.058;2023-06-22T02:11:07;22.20;41.50
326;DHT22;150;52.352;14.058;2023-06-22T02:13:35;22.30;41.10
326;DHT22;150;52.352;14.058;2023-06-22T02:16:03;22.30;40.80
326;DHT22;150;52.352;14.058;2023-06-22T02:18:31;22.40;41.00
326;DHT22;150;52.352;14.058;2023-06-22T02:21:01;22.30;41.30
326;DHT22;150;52.352;14.058;2023-06-22T02:23:27;22.40;41.10
326;DHT22;150;52.352;14.058;2023-06-22T02:25:54;22.40;41.10
326;DHT22;150;52.352;14.058;2023-06-22T02:28:21;22.40;41.10
326;DHT22;150;52.352;14.058;2023-06-22T02:30:47;22.40;41.00
326;DHT22;150;52.352;14.058;2023-06-22T02:33:14;22.40;41.00
326;DHT22;150;52.352;14.058;2023-06-22T02:35:42;22.50;41.20
326;DHT22;150;52.352;14.058;2023-06-22T02:38:13;22.50;40.80
326;DHT22;150;52.352;14.058;2023-06-22T02:40:40;22.50;40.70
326;DHT22;150;52.352;14.058;2023-06-22T02:43:06;22.50;40.60
326;DHT22;150;52.352;14.058;2023-06-22T02:45:33;22.90;40.90
326;DHT22;150;52.352;14.058;2023-06-22T02:48:00;22.50;40.40
326;DHT22;150;52.352;14.058;2023-06-22T02:50:27;22.50;40.30
326;DHT22;150;52.352;14.058;2023-06-22T02:52:55;22.60;40.50
326;DHT22;150;52.352;14.058;2023-06-22T02:55:21;22.60;40.50
326;DHT22;150;52.352;14.058;2023-06-22T02:57:49;22.70;40.90
326;DHT22;150;52.352;14.058;2023-06-22T03:00:18;22.70;40.60
326;DHT22;150;52.352;14.058;2023-06-22T03:02:48;22.70;40.30
326;DHT22;150;52.352;14.058;2023-06-22T03:05:16;22.80;40.20
326;DHT22;150;52.352;14.058;2023-06-22T03:07:43;22.80;40.20
326;DHT22;150;52.352;14.058;2023-06-22T03:10:13;22.80;39.70
326;DHT22;150;52.352;14.058;2023-06-22T03:12:40;22.80;39.90
326;DHT22;150;52.352;14.058;2023-06-22T03:15:09;22.80;39.50
326;DHT22;150;52.352;14.058;2023-06-22T03:17:36;22.80;39.50
326;DHT22;150;52.352;14.058;2023-06-22T03:20:05;22.80;39.70
326;DHT22;150;52.352;14.058;2023-06-22T03:22:36;22.80;39.70
326;DHT22;150;52.352;14.058;2023-06-22T03:25:03;22.90;40.10
326;DHT22;150;52.352;14.058;2023-06-22T03:27:31;22.90;40.20
326;DHT22;150;52.352;14.058;2023-06-22T03:30:00;23.00;39.90
326;DHT22;150;52.352;14.058;2023-06-22T03:32:27;23.00;39.30
326;DHT22;150;52.352;14.058;2023-06-22T03:34:53;22.90;39.70
326;DHT22;150;52.352;14.058;2023-06-22T03:37:24;22.80;39.80
326;DHT22;150;52.352;14.058;2023-06-22T03:39:51;22.90;40.30
326;DHT22;150;52.352;14.058;2023-06-22T03:42:17;22.90;40.20
326;DHT22;150;52.352;14.058;2023-06-22T03:44:46;23.10;40.10
326;DHT22;150;52.352;14.058;2023-06-22T03:47:13;23.20;38.80
326;DHT22;150;52.352;14.058;2023-06-22T03:49:39;23.30;38.60
326;DHT22;150;52.352;14.058;2023-06-22T03:52:07;23.30;38.30
326;DHT22;150;52.352;14.058;2023-06-22T03:54:33;23.40;38.30
326;DHT22;150;52.352;14.058;2023-06-22T03:57:00;23.50;37.90
326;DHT22;150;52.352;14.058;2023-06-22T03:59:27;23.50;37.40
326;DHT22;150;52.352;14.058;2023-06-22T04:01:55;23.60;36.90
326;DHT22;150;52.352;14.058;2023-06-22T04:04:24;23.60;37.00
326;DHT22;150;52.352;14.058;2023-06-22T04:06:51;23.70;36.80
326;DHT22;150;52.352;14.058;2023-06-22T04:09:18;23.80;36.70
326;DHT22;150;52.352;14.058;2023-06-22T04:11:47;24.20;36.20
326;DHT22;150;52.352;14.058;2023-06-22T04:14:13;24.70;35.50
326;DHT22;150;52.352;14.058;2023-06-22T04:16:40;25.10;33.30
326;DHT22;150;52.352;14.058;2023-06-22T04:19:08;25.30;32.20
326;DHT22;150;52.352;14.058;2023-06-22T04:21:39;25.50;31.00
326;DHT22;150;52.352;14.058;2023-06-22T04:24:06;25.90;30.30
326;DHT22;150;52.352;14.058;2023-06-22T04:26:33;26.10;28.90
326;DHT22;150;52.352;14.058;2023-06-22T04:29:02;26.20;28.60
326;DHT22;150;52.352;14.058;2023-06-22T04:31:31;26.30;28.50
326;DHT22;150;52.352;14.058;2023-06-22T04:34:02;26.40;28.30
326;DHT22;150;52.352;14.058;2023-06-22T04:36:34;26.80;27.70
326;DHT22;150;52.352;14.058;2023-06-22T04:39:06;26.90;26.10
326;DHT22;150;52.352;14.058;2023-06-22T04:41:35;27.30;26.60
326;DHT22;150;52.352;14.058;2023-06-22T04:44:10;27.80;26.40
326;DHT22;150;52.352;14.058;2023-06-22T04:46:38;28.10;24.70
326;DHT22;150;52.352;14.058;2023-06-22T04:49:06;28.50;23.90
326;DHT22;150;52.352;14.058;2023-06-22T04:51:37;28.70;22.80
326;DHT22;150;52.352;14.058;2023-06-22T04:54:04;28.30;23.30
326;DHT22;150;52.352;14.058;2023-06-22T04:56:31;28.00;23.70
326;DHT22;150;52.352;14.058;2023-06-22T04:58:58;27.70;25.00
326;DHT22;150;52.352;14.058;2023-06-22T05:01:24;27.40;25.60
326;DHT22;150;52.352;14.058;2023-06-22T05:03:51;26.80;26.00
326;DHT22;150;52.352;14.058;2023-06-22T05:06:20;26.40;27.50
326;DHT22;150;52.352;14.058;2023-06-22T05:08:52;26.00;28.20
326;DHT22;150;52.352;14.058;2023-06-22T05:11:22;25.70;28.90
326;DHT22;150;52.352;14.058;2023-06-22T05:13:49;25.60;29.80
326;DHT22;150;52.352;14.058;2023-06-22T05:16:16;25.40;30.30
326;DHT22;150;52.352;14.058;2023-06-22T05:18:42;25.30;30.80
326;DHT22;150;52.352;14.058;2023-06-22T05:21:09;25.10;31.10
326;DHT22;150;52.352;14.058;2023-06-22T05:23:36;24.90;31.80
326;DHT22;150;52.352;14.058;2023-06-22T05:26:04;24.90;32.70
326;DHT22;150;52.352;14.058;2023-06-22T05:28:31;24.80;33.30
326;DHT22;150;52.352;14.058;2023-06-22T05:30:59;24.90;32.90
326;DHT22;150;52.352;14.058;2023-06-22T05:33:25;24.70;32.40
326;DHT22;150;52.352;14.058;2023-06-22T05:35:52;24.70;33.70
326;DHT22;150;52.352;14.058;2023-06-22T05:38:18;24.70;33.00
326;DHT22;150;52.352;14.058;2023-06-22T05:40:45;24.60;33.20
326;DHT22;150;52.352;14.058;2023-06-22T05:43:13;24.70;34.10
326;DHT22;150;52.352;14.058;2023-06-22T05:45:40;24.70;32.20
326;DHT22;150;52.352;14.058;2023-06-22T05:48:06;24.90;33.50
326;DHT22;150;52.352;14.058;2023-06-22T05:50:33;25.20;33.00
326;DHT22;150;52.352;14.058;2023-06-22T05:53:00;25.30;32.00
326;DHT22;150;52.352;14.058;2023-06-22T05:55:26;25.30;30.50
326;DHT22;150;52.352;14.058;2023-06-22T05:57:53;25.30;30.50
326;DHT22;150;52.352;14.058;2023-06-22T06:00:21;25.20;30.40
326;DHT22;150;52.352;14.058;2023-06-22T06:02:48;25.30;30.20
326;DHT22;150;52.352;14.058;2023-06-22T06:05:15;25.40;28.80
326;DHT22;150;52.352;14.058;2023-06-22T06:07:42;25.60;29.70
326;DHT22;150;52.352;14.058;2023-06-22T06:10:09;25.70;29.60
326;DHT22;150;52.352;14.058;2023-06-22T06:12:36;25.80;28.00
326;DHT22;150;52.352;14.058;2023-06-22T06:15:03;26.00;27.80
326;DHT22;150;52.352;14.058;2023-06-22T06:17:32;26.10;27.60
326;DHT22;150;52.352;14.058;2023-06-22T06:19:59;26.00;26.30
326;DHT22;150;52.352;14.058;2023-06-22T06:22:26;26.00;26.80
326;DHT22;150;52.352;14.058;2023-06-22T06:24:52;26.10;26.40
326;DHT22;150;52.352;14.058;2023-06-22T06:27:19;26.10;25.20
326;DHT22;150;52.352;14.058;2023-06-22T06:29:45;26.30;25.70
326;DHT22;150;52.352;14.058;2023-06-22T06:32:14;26.10;24.60
326;DHT22;150;52.352;14.058;2023-06-22T06:34:42;26.10;25.60
326;DHT22;150;52.352;14.058;2023-06-22T06:37:08;26.20;25.60
326;DHT22;150;52.352;14.058;2023-06-22T06:39:35;26.30;24.30
326;DHT22;150;52.352;14.058;2023-06-22T06:42:02;26.50;24.10
326;DHT22;150;52.352;14.058;2023-06-22T06:44:28;26.50;22.90
326;DHT22;150;52.352;14.058;2023-06-22T06:46:55;26.60;24.00
326;DHT22;150;52.352;14.058;2023-06-22T06:49:22;26.70;23.40
326;DHT22;150;52.352;14.058;2023-06-22T06:51:50;26.70;24.20
326;DHT22;150;52.352;14.058;2023-06-22T06:54:17;26.60;21.50
326;DHT22;150;52.352;14.058;2023-06-22T06:56:46;26.70;22.90
326;DHT22;150;52.352;14.058;2023-06-22T06:59:13;26.90;22.70
326;DHT22;150;52.352;14.058;2023-06-22T07:01:40;26.90;21.50
326;DHT22;150;52.352;14.058;2023-06-22T07:04:07;26.90;21.80
326;DHT22;150;52.352;14.058;2023-06-22T07:06:33;26.80;22.10
326;DHT22;150;52.352;14.058;2023-06-22T07:09:01;26.80;22.80
326;DHT22;150;52.352;14.058;2023-06-22T07:11:29;26.80;21.70
326;DHT22;150;52.352;14.058;2023-06-22T07:13:55;26.90;21.50
326;DHT22;150;52.352;14.058;2023-06-22T07:16:22;26.80;20.10
326;DHT22;150;52.352;14.058;2023-06-22T07:18:50;26.90;21.00
326;DHT22;150;52.352;14.058;2023-06-22T07:21:17;26.90;21.30
326;DHT22;150;52.352;14.058;2023-06-22T07:23:43;27.00;20.40
326;DHT22;150;52.352;14.058;2023-06-22T07:26:11;27.00;20.50
326;DHT22;150;52.352;14.058;2023-06-22T07:28:38;27.00;19.90
326;DHT22;150;52.352;14.058;2023-06-22T07:31:06;27.00;20.60
326;DHT22;150;52.352;14.058;2023-06-22T07:33:32;26.90;20.00
326;DHT22;150;52.352;14.058;2023-06-22T07:35:59;27.00;19.80
326;DHT22;150;52.352;14.058;2023-06-22T07:38:26;27.00;19.80
326;DHT22;150;52.352;14.058;2023-06-22T07:40:53;26.90;19.10
326;DHT22;150;52.352;14.058;2023-06-22T07:43:21;26.90;20.00
326;DHT22;150;52.352;14.058;2023-06-22T07:45:50;27.00;20.00
326;DHT22;150;52.352;14.058;2023-06-22T07:48:20;27.10;19.00
326;DHT22;150;52.352;14.058;2023-06-22T07:50:46;27.10;18.50
326;DHT22;150;52.352;14.058;2023-06-22T07:53:13;27.10;17.80
326;DHT22;150;52.352;14.058;2023-06-22T07:55:40;27.30;18.70
326;DHT22;150;52.352;14.058;2023-06-22T07:58:06;27.40;17.20
326;DHT22;150;52.352;14.058;2023-06-22T08:00:34;27.50;17.20
326;DHT22;150;52.352;14.058;2023-06-22T08:03:01;27.60;17.30
326;DHT22;150;52.352;14.058;2023-06-22T08:05:30;27.70;15.60
326;DHT22;150;52.352;14.058;2023-06-22T08:07:57;27.50;13.50
326;DHT22;150;52.352;14.058;2023-06-22T08:10:24;27.30;13.80
326;DHT22;150;52.352;14.058;2023-06-22T08:12:51;27.20;14.20
326;DHT22;150;52.352;14.058;2023-06-22T08:15:18;27.20;14.70
326;DHT22;150;52.352;14.058;2023-06-22T08:17:46;27.20;14.60
326;DHT22;150;52.352;14.058;2023-06-22T08:20:13;27.20;14.50
326;DHT22;150;52.352;14.058;2023-06-22T08:22:40;27.30;14.30
326;DHT22;150;52.352;14.058;2023-06-22T08:25:08;27.30;14.40
326;DHT22;150;52.352;14.058;2023-06-22T08:27:35;27.40;12.80
326;DHT22;150;52.352;14.058;2023-06-22T08:30:02;27.50;13.30
326;DHT22;150;52.352;14.058;2023-06-22T08:32:29;27.70;14.10
326;DHT22;150;52.352;14.058;2023-06-22T08:34:59;27.90;12.90
326;DHT22;150;52.352;14.058;2023-06-22T08:37:26;27.90;13.00
326;DHT22;150;52.352;14.058;2023-06-22T08:39:56;27.90;11.80
326;DHT22;150;52.352;14.058;2023-06-22T08:42:23;28.00;11.90
326;DHT22;150;52.352;14.058;2023-06-22T08:44:51;28.00;11.80
326;DHT22;150;52.352;14.058;2023-06-22T08:47:18;27.90;11.00
326;DHT22;150;52.352;14.058;2023-06-22T08:49:44;27.90;11.30
326;DHT22;150;52.352;14.058;2023-06-22T08:52:12;27.80;10.40
326;DHT22;150;52.352;14.058;2023-06-22T08:54:39;27.60;11.50
326;DHT22;150;52.352;14.058;2023-06-22T08:57:06;27.60;11.40
326;DHT22;150;52.352;14.058;2023-06-22T08:59:33;27.60;12.00
326;DHT22;150;52.352;14.058;2023-06-22T09:01:59;27.60;12.10
326;DHT22;150;52.352;14.058;2023-06-22T09:04:26;27.60;11.80
326;DHT22;150;52.352;14.058;2023-06-22T09:06:53;27.50;12.60
326;DHT22;150;52.352;14.058;2023-06-22T09:09:21;27.50;12.60
326;DHT22;150;52.352;14.058;2023-06-22T09:11:48;27.60;12.90
326;DHT22;150;52.352;14.058;2023-06-22T09:14:15;27.60;13.20
326;DHT22;150;52.352;14.058;2023-06-22T09:16:42;27.60;11.50
326;DHT22;150;52.352;14.058;2023-06-22T09:19:08;27.50;12.10
326;DHT22;150;52.352;14.058;2023-06-22T09:21:35;27.50;13.20
326;DHT22;150;52.352;14.058;2023-06-22T09:24:02;27.50;11.90
326;DHT22;150;52.352;14.058;2023-06-22T09:26:30;27.50;12.60
326;DHT22;150;52.352;14.058;2023-06-22T09:28:56;27.50;12.30
326;DHT22;150;52.352;14.058;2023-06-22T09:31:24;27.60;11.20
326;DHT22;150;52.352;14.058;2023-06-22T09:33:52;27.80;12.20
326;DHT22;150;52.352;14.058;2023-06-22T09:36:19;28.00;12.50
326;DHT22;150;52.352;14.058;2023-06-22T09:38:46;28.00;11.50
326;DHT22;150;52.352;14.058;2023-06-22T09:41:12;28.00;11.30
326;DHT22;150;52.352;14.058;2023-06-22T09:43:40;28.00;11.10
326;DHT22;150;52.352;14.058;2023-06-22T09:46:25;28.00;11.20
326;DHT22;150;52.352;14.058;2023-06-22T09:48:59;28.10;11.20
326;DHT22;150;52.352;14.058;2023-06-22T09:51:29;28.10;10.30
326;DHT22;150;52.352;14.058;2023-06-22T09:53:56;28.20;11.40
326;DHT22;150;52.352;14.058;2023-06-22T09:56:29;28.20;10.90
326;DHT22;150;52.352;14.058;2023-06-22T09:58:58;28.20;10.20
326;DHT22;150;52.352;14.058;2023-06-22T10:01:27;28.30;10.80
326;DHT22;150;52.352;14.058;2023-06-22T10:04:02;28.30;11.50
326;DHT22;150;52.352;14.058;2023-06-22T10:06:35;28.30;10.70
326;DHT22;150;52.352;14.058;2023-06-22T10:09:09;28.40;10.60
326;DHT22;150;52.352;14.058;2023-06-22T10:11:43;28.60;11.00
326;DHT22;150;52.352;14.058;2023-06-22T10:14:24;28.70;11.80
326;DHT22;150;52.352;14.058;2023-06-22T10:17:04;28.70;9.40
326;DHT22;150;52.352;14.058;2023-06-22T10:19:32;28.60;9.80
326;DHT22;150;52.352;14.058;2023-06-22T10:22:05;28.60;9.50
326;DHT22;150;52.352;14.058;2023-06-22T10:24:32;28.50;9.70
326;DHT22;150;52.352;14.058;2023-06-22T10:26:59;28.50;9.40
326;DHT22;150;52.352;14.058;2023-06-22T10:29:27;28.40;9.70
326;DHT22;150;52.352;14.058;2023-06-22T10:31:54;28.30;9.50
326;DHT22;150;52.352;14.058;2023-06-22T10:34:31;28.30;9.30
326;DHT22;150;52.352;14.058;2023-06-22T10:36:58;28.30;10.00
326;DHT22;150;52.352;14.058;2023-06-22T10:39:24;28.50;10.00
326;DHT22;150;52.352;14.058;2023-06-22T10:41:57;28.50;9.90
326;DHT22;150;52.352;14.058;2023-06-22T10:44:24;28.70;9.60
326;DHT22;150;52.352;14.058;2023-06-22T10:46:54;28.80;10.50
326;DHT22;150;52.352;14.058;2023-06-22T10:49:24;28.90;9.80
326;DHT22;150;52.352;14.058;2023-06-22T10:51:55;28.90;10.40
326;DHT22;150;52.352;14.058;2023-06-22T10:54:26;29.00;10.40
326;DHT22;150;52.352;14.058;2023-06-22T10:56:55;29.10;11.00
326;DHT22;150;52.352;14.058;2023-06-22T10:59:25;29.40;10.00
326;DHT22;150;52.352;14.058;2023-06-22T11:01:54;29.40;9.80
326;DHT22;150;52.352;14.058;2023-06-22T11:04:42;29.20;9.70
326;DHT22;150;52.352;14.058;2023-06-22T11:07:16;29.10;10.00
326;DHT22;150;52.352;14.058;2023-06-22T11:09:57;29.20;10.30
326;DHT22;150;52.352;14.058;2023-06-22T11:12:38;29.10;9.60
326;DHT22;150;52.352;14.058;2023-06-22T11:15:16;29.00;9.80
326;DHT22;150;52.352;14.058;2023-06-22T11:17:52;29.10;10.20
326;DHT22;150;52.352;14.058;2023-06-22T11:20:19;29.10;10.60
326;DHT22;150;52.352;14.058;2023-06-22T11:22:46;29.20;11.90
326;DHT22;150;52.352;14.058;2023-06-22T11:25:27;29.10;10.70
326;DHT22;150;52.352;14.058;2023-06-22T11:28:01;29.20;10.00
326;DHT22;150;52.352;14.058;2023-06-22T11:30:32;29.40;9.90
326;DHT22;150;52.352;14.058;2023-06-22T11:33:06;29.40;8.80
326;DHT22;150;52.352;14.058;2023-06-22T11:35:50;29.60;9.90
326;DHT22;150;52.352;14.058;2023-06-22T11:38:22;29.80;9.00
326;DHT22;150;52.352;14.058;2023-06-22T11:40:48;29.90;9.10
326;DHT22;150;52.352;14.058;2023-06-22T11:43:21;30.10;9.20
326;DHT22;150;52.352;14.058;2023-06-22T11:45:55;30.00;7.70
326;DHT22;150;52.352;14.058;2023-06-22T11:48:31;30.00;8.00
326;DHT22;150;52.352;14.058;2023-06-22T11:51:00;30.20;8.60
326;DHT22;150;52.352;14.058;2023-06-22T11:53:46;30.10;7.90
326;DHT22;150;52.352;14.058;2023-06-22T11:56:26;29.90;8.40
326;DHT22;150;52.352;14.058;2023-06-22T11:59:03;29.80;8.10
326;DHT22;150;52.352;14.058;2023-06-22T12:01:33;29.50;8.00
326;DHT22;150;52.352;14.058;2023-06-22T12:04:11;29.50;8.50
326;DHT22;150;52.352;14.058;2023-06-22T12:06:49;29.60;8.30
326;DHT22;150;52.352;14.058;2023-06-22T12:09:30;29.80;8.10
326;DHT22;150;52.352;14.058;2023-06-22T12:11:57;30.00;8.60
326;DHT22;150;52.352;14.058;2023-06-22T12:14:45;30.10;7.50
326;DHT22;150;52.352;14.058;2023-06-22T12:17:18;30.00;7.30
326;DHT22;150;52.352;14.058;2023-06-22T12:19:46;29.90;8.00
326;DHT22;150;52.352;14.058;2023-06-22T12:22:19;29.60;8.80
326;DHT22;150;52.352;14.058;2023-06-22T12:24:45;29.40;8.80
326;DHT22;150;52.352;14.058;2023-06-22T12:27:26;29.30;8.80
326;DHT22;150;52.352;14.058;2023-06-22T12:32:44;29.50;10.60
326;DHT22;150;52.352;14.058;2023-06-22T12:35:20;29.60;8.90
326;DHT22;150;52.352;14.058;2023-06-22T12:38:00;29.90;9.10
326;DHT22;150;52.352;14.058;2023-06-22T12:40:36;29.90;9.10
326;DHT22;150;52.352;14.058;2023-06-22T12:43:28;29.90;8.60
326;DHT22;150;52.352;14.058;2023-06-22T12:46:16;29.70;9.00
326;DHT22;150;52.352;14.058;2023-06-22T12:48:57;29.70;9.00
326;DHT22;150;52.352;14.058;2023-06-22T12:51:39;29.80;9.00
326;DHT22;150;52.352;14.058;2023-06-22T12:54:06;29.90;9.10
326;DHT22;150;52.352;14.058;2023-06-22T12:56:38;30.00;9.00
326;DHT22;150;52.352;14.058;2023-06-22T12:59:18;30.10;9.20
326;DHT22;150;52.352;14.058;2023-06-22T13:01:47;30.20;8.50
326;DHT22;150;52.352;14.058;2023-06-22T13:04:38;30.40;8.80
326;DHT22;150;52.352;14.058;2023-06-22T13:07:30;30.50;9.20
326;DHT22;150;52.352;14.058;2023-06-22T13:09:57;30.50;8.70
326;DHT22;150;52.352;14.058;2023-06-22T13:12:39;30.40;8.20
326;DHT22;150;52.352;14.058;2023-06-22T13:15:08;30.50;8.20
326;DHT22;150;52.352;14.058;2023-06-22T13:18:03;30.30;8.60
326;DHT22;150;52.352;14.058;2023-06-22T13:20:39;30.20;8.70
326;DHT22;150;52.352;14.058;2023-06-22T13:23:15;30.40;9.30
326;DHT22;150;52.352;14.058;2023-06-22T13:25:53;30.60;9.20
326;DHT22;150;52.352;14.058;2023-06-22T13:28:36;30.50;8.30
326;DHT22;150;52.352;14.058;2023-06-22T13:31:17;30.60;9.40
326;DHT22;150;52.352;14.058;2023-06-22T13:34:00;30.60;7.70
326;DHT22;150;52.352;14.058;2023-06-22T13:36:40;30.60;9.40
326;DHT22;150;52.352;14.058;2023-06-22T13:39:17;30.60;8.40
326;DHT22;150;52.352;14.058;2023-06-22T13:41:54;30.70;8.30
326;DHT22;150;52.352;14.058;2023-06-22T13:44:53;30.80;7.60
326;DHT22;150;52.352;14.058;2023-06-22T13:47:22;30.80;7.60
326;DHT22;150;52.352;14.058;2023-06-22T13:50:08;30.70;8.30
326;DHT22;150;52.352;14.058;2023-06-22T13:52:40;30.80;8.40
326;DHT22;150;52.352;14.058;2023-06-22T13:55:33;30.80;7.70
326;DHT22;150;52.352;14.058;2023-06-22T13:58:05;30.50;8.40
326;DHT22;150;52.352;14.058;2023-06-22T14:00:57;30.50;9.10
326;DHT22;150;52.352;14.058;2023-06-22T14:03:39;30.50;9.40
326;DHT22;150;52.352;14.058;2023-06-22T14:06:23;30.50;8.00
326;DHT22;150;52.352;14.058;2023-06-22T14:08:52;30.70;8.30
326;DHT22;150;52.352;14.058;2023-06-22T14:11:32;30.70;8.50
326;DHT22;150;52.352;14.058;2023-06-22T14:14:05;30.70;8.60
326;DHT22;150;52.352;14.058;2023-06-22T14:19:36;31.00;9.20
326;DHT22;150;52.352;14.058;2023-06-22T14:22:08;31.00;7.60
326;DHT22;150;52.352;14.058;2023-06-22T14:24:38;31.10;8.50
326;DHT22;150;52.352;14.058;2023-06-22T14:27:06;31.10;8.30
326;DHT22;150;52.352;14.058;2023-06-22T14:29:37;31.00;8.40
326;DHT22;150;52.352;14.058;2023-06-22T14:32:18;30.90;7.80
326;DHT22;150;52.352;14.058;2023-06-22T14:34:49;30.70;7.30
326;DHT22;150;52.352;14.058;2023-06-22T14:37:21;30.90;8.60
326;DHT22;150;52.352;14.058;2023-06-22T14:39:54;30.90;8.60
326;DHT22;150;52.352;14.058;2023-06-22T14:42:31;31.00;8.60
326;DHT22;150;52.352;14.058;2023-06-22T14:45:04;31.10;7.30
326;DHT22;150;52.352;14.058;2023-06-22T14:47:31;31.10;8.00
326;DHT22;150;52.352;14.058;2023-06-22T14:49:58;30.90;7.40
326;DHT22;150;52.352;14.058;2023-06-22T14:52:25;30.90;7.80
326;DHT22;150;52.352;14.058;2023-06-22T14:54:52;31.00;9.20
326;DHT22;150;52.352;14.058;2023-06-22T14:57:19;30.70;8.00
326;DHT22;150;52.352;14.058;2023-06-22T14:59:49;30.70;8.30
326;DHT22;150;52.352;14.058;2023-06-22T15:02:16;30.50;8.60
326;DHT22;150;52.352;14.058;2023-06-22T15:04:43;30.60;9.40
326;DHT22;150;52.352;14.058;2023-06-22T15:07:10;30.70;8.70
326;DHT22;150;52.352;14.058;2023-06-22T15:09:39;30.60;8.10
326;DHT22;150;52.352;14.058;2023-06-22T15:12:08;30.60;8.20
326;DHT22;150;52.352;14.058;2023-06-22T15:25:17;30.30;8.40
326;DHT22;150;52.352;14.058;2023-06-22T15:36:04;30.30;9.30
326;DHT22;150;52.352;14.058;2023-06-22T15:54:18;30.20;9.20
326;DHT22;150;52.352;14.058;2023-06-22T15:57:51;30.20;9.20
326;DHT22;150;52.352;14.058;2023-06-22T16:01:02;30.00;9.10
326;DHT22;150;52.352;14.058;2023-06-22T16:27:57;29.70;10.10
326;DHT22;150;52.352;14.058;2023-06-22T16:43:57;29.20;10.60
326;DHT22;150;52.352;14.058;2023-06-22T16:47:24;29.20;10.60
326;DHT22;150;52.352;14.058;2023-06-22T16:50:05;29.20;11.50
326;DHT22;150;52.352;14.058;2023-06-22T17:04:51;28.80;11.90
326;DHT22;150;52.352;14.058;2023-06-22T18:35:24;27.30;14.10
326;DHT22;150;52.352;14.058;2023-06-22T18:38:47;27.30;14.20
326;DHT22;150;52.352;14.058;2023-06-22T19:01:14;27.10;14.40
326;DHT22;150;52.352;14.058;2023-06-22T19:07:15;27.10;14.80
326;DHT22;150;52.352;14.058;2023-06-22T19:10:22;27.00;14.20
326;DHT22;150;52.352;14.058;2023-06-22T19:13:25;27.00;14.20
326;DHT22;150;52.352;14.058;2023-06-22T19:16:16;27.00;14.10
326;DHT22;150;52.352;14.058;2023-06-22T19:19:15;27.00;14.40
326;DHT22;150;52.352;14.058;2023-06-22T19:22:01;27.00;13.90
326;DHT22;150;52.352;14.058;2023-06-22T19:24:53;26.90;14.00
326;DHT22;150;52.352;14.058;2023-06-22T19:27:29;26.80;14.30
326;DHT22;150;52.352;14.058;2023-06-22T19:30:16;26.70;14.30
326;DHT22;150;52.352;14.058;2023-06-22T19:32:50;26.50;14.60
326;DHT22;150;52.352;14.058;2023-06-22T19:35:20;26.50;14.60
326;DHT22;150;52.352;14.058;2023-06-22T19:38:01;26.50;14.60
326;DHT22;150;52.352;14.058;2023-06-22T19:40:31;26.50;14.70
326;DHT22;150;52.352;14.058;2023-06-22T19:43:22;26.50;14.90
326;DHT22;150;52.352;14.058;2023-06-22T19:45:56;26.40;14.80
326;DHT22;150;52.352;14.058;2023-06-22T19:48:26;26.50;14.70
326;DHT22;150;52.352;14.058;2023-06-22T19:51:04;26.40;14.70
326;DHT22;150;52.352;14.058;2023-06-22T19:53:39;26.40;14.90
326;DHT22;150;52.352;14.058;2023-06-22T19:56:08;26.40;14.60
326;DHT22;150;52.352;14.058;2023-06-22T19:58:46;26.40;15.00
326;DHT22;150;52.352;14.058;2023-06-22T20:01:28;26.40;14.80
326;DHT22;150;52.352;14.058;2023-06-22T20:04:02;26.30;14.70
326;DHT22;150;52.352;14.058;2023-06-22T20:06:32;26.40;14.90
326;DHT22;150;52.352;14.058;2023-06-22T20:09:05;26.40;14.90
326;DHT22;150;52.352;14.058;2023-06-22T20:11:42;26.40;14.60